South Egg Harbor, New Jersey
Current Conditions -  °F | °C
As of 5:54 PM on Wednesday 22 Oct 2014 (Local Time) from KACY Reporting Station
Overcast Overcast  
Wind Chill: 53°   Ceiling: 1600
Heat Index: 53°   Visibility: 10mi
Dew Point: 51°   Wind: 15mph
Humidity: 93%   Direction: 350°N
Pressure: 29.77"   Gusts: NA
Location:  39.5436°N, 74.5919°W
Report Text: KACY 222154Z 35013KT 10SM OVC016 12/11 A2977 RMK AO2 RAE2059 SLP081 P0000 T01170106
Loading
Personal Weather Stations






























Interactive Weather Map
Tropical Storm Tracking
New forecast layout! Learn more

10-Day Weather Forecast

Advertisements
Track Severe Weather on mobile